Time;durP1;ratioP1;P1;durP2;ratioP2;P2;SDS_P1;SDS_P2;PMS_P1;PMS_P2;Temp;Humidity;BMP_temperature;BMP_pressure;BME280_temperature;BME280_humidity;BME280_pressure;Samples;Min_cycle;Max_cycle;Signal;HPM_P1;HPM_P2
2023/04/23 00:04:04;;;;;;;5.65;4.13;;;;;;;22.19;38.28;100103.00;41404748;28;20526;-77
2023/04/23 00:24:05;;;;;;;5.28;4.38;;;;;;;22.18;38.50;100104.81;41442942;28;20058;-76
2023/04/23 00:44:07;;;;;;;5.90;4.30;;;;;;;22.18;38.67;100103.97;41415224;28;20140;-76
2023/04/23 01:04:08;;;;;;;6.72;4.40;;;;;;;22.16;38.99;100101.47;41437946;28;20137;-76
2023/04/23 01:24:10;;;;;;;5.40;4.20;;;;;;;22.13;38.81;100098.25;41537917;28;20068;-77
2023/04/23 01:44:10;;;;;;;5.32;4.35;;;;;;;22.11;39.09;100095.75;41496029;28;20119;-76
2023/04/23 02:04:13;;;;;;;5.15;4.13;;;;;;;22.10;39.16;100083.53;41494779;28;20120;-77
2023/04/23 02:24:13;;;;;;;4.93;4.07;;;;;;;22.06;39.41;100074.22;41555054;28;20057;-76
2023/04/23 02:44:14;;;;;;;4.63;3.78;;;;;;;22.05;39.58;100080.47;41551756;28;20467;-76
2023/04/23 03:04:14;;;;;;;6.50;4.28;;;;;;;22.05;39.72;100062.00;41498169;28;20045;-76
2023/04/23 03:24:15;;;;;;;5.22;4.05;;;;;;;22.03;39.73;100062.16;41468053;28;20085;-76
2023/04/23 03:44:15;;;;;;;4.50;3.90;;;;;;;21.99;39.96;100076.53;41425596;28;20038;-77
2023/04/23 04:04:16;;;;;;;7.43;4.85;;;;;;;21.97;39.78;100077.66;41534606;28;20057;-76
2023/04/23 04:24:17;;;;;;;4.55;4.00;;;;;;;21.98;40.33;100092.50;41493309;28;20124;-76
2023/04/23 04:44:20;;;;;;;5.03;4.03;;;;;;;22.02;40.86;100099.16;41524074;28;20034;-75
2023/04/23 05:04:20;;;;;;;5.13;4.20;;;;;;;22.04;41.14;100107.78;41541867;28;20504;-75
2023/04/23 05:24:20;;;;;;;6.15;3.88;;;;;;;22.09;41.02;100116.13;41528337;28;20057;-75
2023/04/23 05:44:22;;;;;;;5.25;4.47;;;;;;;22.16;41.96;100111.19;41555926;28;20475;-75
2023/04/23 06:04:23;;;;;;;7.18;4.30;;;;;;;22.19;42.02;100127.59;41558025;28;20046;-75
2023/04/23 06:24:23;;;;;;;7.60;4.32;;;;;;;22.22;42.21;100126.47;41438087;28;20041;-76
2023/04/23 06:44:23;;;;;;;4.15;3.75;;;;;;;22.22;42.19;100129.94;41553734;28;20033;-75
2023/04/23 07:04:24;;;;;;;9.45;7.05;;;;;;;21.70;33.48;100126.47;41479241;28;20453;-77
2023/04/23 07:24:25;;;;;;;7.78;5.80;;;;;;;21.19;30.78;100120.06;41500820;28;20077;-76
2023/04/23 07:44:25;;;;;;;8.60;4.82;;;;;;;21.03;30.00;100123.97;41435092;28;20054;-76
2023/04/23 08:04:26;;;;;;;7.07;4.32;;;;;;;21.19;30.10;100120.94;41438357;28;20060;-76
2023/04/23 08:24:26;;;;;;;8.50;3.67;;;;;;;21.32;31.06;100112.03;41595919;28;20049;-75
2023/04/23 08:44:30;;;;;;;5.63;3.90;;;;;;;21.52;33.38;100098.03;41479706;28;20477;-76
2023/04/23 09:04:30;;;;;;;6.47;3.72;;;;;;;21.71;35.05;100084.16;41550664;28;20104;-76
2023/04/23 09:24:33;;;;;;;4.53;3.15;;;;;;;21.88;35.74;100061.66;41445516;28;20058;-76
2023/04/23 09:44:34;;;;;;;5.22;3.50;;;;;;;21.85;30.08;100059.28;41566289;28;20049;-76
2023/04/23 10:04:35;;;;;;;5.20;3.45;;;;;;;21.78;28.14;100042.31;41444690;28;20045;-77
2023/04/23 10:24:39;;;;;;;12.68;5.22;;;;;;;21.81;23.37;100020.97;41467476;28;20133;-77
2023/04/23 10:44:43;;;;;;;5.82;3.67;;;;;;;22.03;28.16;99998.88;41587807;28;20504;-77
2023/04/23 11:04:45;;;;;;;5.97;2.88;;;;;;;22.21;26.64;99995.59;41556759;28;20133;-72
2023/04/23 11:24:46;;;;;;;11.43;3.10;;;;;;;22.34;27.37;99979.53;41534680;28;20099;-78
2023/04/23 11:44:47;;;;;;;5.07;3.10;;;;;;;22.58;30.22;99970.41;41455974;28;20112;-73
2023/04/23 12:04:54;;;;;;;4.20;3.17;;;;;;;22.59;30.29;99954.41;41481567;28;20487;-73
2023/04/23 12:24:55;;;;;;;3.92;3.13;;;;;;;22.58;26.18;99925.53;41409318;28;20045;-74
2023/04/23 12:45:04;;;;;;;6.53;2.90;;;;;;;22.67;26.01;99908.88;41525168;28;20381;-74
2023/04/23 13:05:05;;;;;;;5.85;2.60;;;;;;;22.82;25.78;99885.50;41581111;28;20522;-74
2023/04/23 13:25:06;;;;;;;6.88;3.00;;;;;;;22.91;27.60;99855.63;41445952;28;20053;-72
2023/04/23 13:45:06;;;;;;;4.43;2.90;;;;;;;23.14;27.28;99824.44;41482114;28;20132;-75
2023/04/23 14:05:07;;;;;;;5.30;3.92;;;;;;;23.32;25.55;99813.09;41609306;28;20048;-73
2023/04/23 14:25:14;;;;;;;4.25;2.83;;;;;;;23.38;24.69;99795.84;41457842;28;20057;-72
2023/04/23 14:45:19;;;;;;;6.68;4.38;;;;;;;23.90;25.48;99781.97;41474624;28;20060;-74
2023/04/23 15:05:21;;;;;;;5.57;3.67;;;;;;;24.68;27.91;99769.88;41453795;28;20046;-74
2023/04/23 15:25:22;;;;;;;4.28;3.22;;;;;;;25.32;27.62;99759.72;41569483;28;20124;-74
2023/04/23 15:45:23;;;;;;;9.20;3.17;;;;;;;25.49;28.03;99755.31;41479209;28;20042;-74
2023/04/23 16:05:23;;;;;;;7.68;3.20;;;;;;;25.63;28.02;99739.78;41445002;28;20382;-76
2023/04/23 16:25:24;;;;;;;3.58;3.10;;;;;;;25.37;26.57;99732.75;41447550;28;20042;-75
2023/04/23 16:45:26;;;;;;;4.93;3.20;;;;;;;24.52;23.62;99726.41;41507239;28;20116;-82
2023/04/23 17:05:31;;;;;;;6.00;3.10;;;;;;;24.12;27.19;99715.44;41534905;28;20049;-80
2023/04/23 17:25:32;;;;;;;4.93;3.03;;;;;;;23.91;29.15;99715.75;41600988;28;20100;-81
2023/04/23 17:45:33;;;;;;;6.28;3.50;;;;;;;23.80;31.29;99723.91;41639896;28;20077;-84
2023/04/23 18:05:35;;;;;;;7.53;3.70;;;;;;;23.75;35.13;99734.09;41599729;28;20049;-83
2023/04/23 18:25:36;;;;;;;7.90;3.70;;;;;;;23.54;30.04;99747.63;41463359;28;20053;-79
2023/04/23 18:45:37;;;;;;;8.75;3.97;;;;;;;23.47;31.02;99766.72;41555597;28;20077;-76
2023/04/23 19:05:38;;;;;;;6.45;4.53;;;;;;;23.42;31.84;99768.94;41478417;28;20046;-79
2023/04/23 19:25:39;;;;;;;6.15;3.72;;;;;;;23.30;30.20;99771.00;41472764;28;20061;-74
2023/04/23 19:45:41;;;;;;;6.32;3.55;;;;;;;23.29;34.08;99760.56;41470906;28;20061;-74
2023/04/23 20:05:44;;;;;;;5.07;3.50;;;;;;;23.31;35.58;99762.09;41440991;28;20053;-74
2023/04/23 20:25:48;;;;;;;4.90;3.38;;;;;;;23.30;35.87;99738.44;41571466;28;20045;-73
2023/04/23 20:45:49;;;;;;;4.32;3.10;;;;;;;23.28;36.31;99733.31;41534905;28;20745;-75
2023/04/23 21:05:50;;;;;;;4.35;3.10;;;;;;;23.27;36.64;99729.00;41519439;28;20132;-74
2023/04/23 21:25:50;;;;;;;6.45;2.90;;;;;;;23.26;37.53;99711.50;41498906;28;20467;-72
2023/04/23 21:45:51;;;;;;;3.42;2.90;;;;;;;23.27;37.79;99699.13;41568970;28;20076;-73
2023/04/23 22:05:52;;;;;;;3.17;2.60;;;;;;;23.23;37.50;99674.84;41490944;28;20045;-73
2023/04/23 22:25:53;;;;;;;4.35;2.58;;;;;;;23.21;37.75;99663.56;41509146;28;20499;-71
2023/04/23 22:45:53;;;;;;;3.75;2.22;;;;;;;23.20;38.07;99654.00;41542961;28;20084;-72
2023/04/23 23:05:54;;;;;;;3.08;2.78;;;;;;;23.15;38.29;99621.88;41489654;28;20061;-72
2023/04/23 23:25:56;;;;;;;3.38;2.60;;;;;;;23.12;38.35;99607.19;41437469;28;20046;-73
2023/04/23 23:45:57;;;;;;;2.78;2.50;;;;;;;23.10;38.73;99597.75;41425811;28;20058;-73
